sensor_id;sensor_type;location;lat;lon;timestamp;temperature;humidity
41116;DHT22;26861;51.824;4.682;2023-04-15T00:01:24;19.40;81.80
41116;DHT22;26861;51.824;4.682;2023-04-15T00:03:53;19.50;51.50
41116;DHT22;26861;51.824;4.682;2023-04-15T00:06:22;19.60;82.00
41116;DHT22;26861;51.824;4.682;2023-04-15T00:08:48;19.50;66.30
41116;DHT22;26861;51.824;4.682;2023-04-15T00:11:15;19.40;82.00
41116;DHT22;26861;51.824;4.682;2023-04-15T00:13:41;19.50;81.50
41116;DHT22;26861;51.824;4.682;2023-04-15T00:16:08;19.40;51.20
41116;DHT22;26861;51.824;4.682;2023-04-15T00:18:34;19.50;81.40
41116;DHT22;26861;51.824;4.682;2023-04-15T00:21:00;19.50;74.00
41116;DHT22;26861;51.824;4.682;2023-04-15T00:23:26;19.70;81.40
41116;DHT22;26861;51.824;4.682;2023-04-15T00:25:52;19.50;80.10
41116;DHT22;26861;51.824;4.682;2023-04-15T00:35:36;19.50;82.20
41116;DHT22;26861;51.824;4.682;2023-04-15T00:38:06;19.50;82.30
41116;DHT22;26861;51.824;4.682;2023-04-15T00:40:32;19.40;74.70
41116;DHT22;26861;51.824;4.682;2023-04-15T00:42:58;19.50;82.80
41116;DHT22;26861;51.824;4.682;2023-04-15T00:45:25;19.40;51.60
41116;DHT22;26861;51.824;4.682;2023-04-15T00:47:52;19.70;83.80
41116;DHT22;26861;51.824;4.682;2023-04-15T00:55:11;19.50;83.10
41116;DHT22;26861;51.824;4.682;2023-04-15T00:57:38;19.60;83.10
41116;DHT22;26861;51.824;4.682;2023-04-15T01:00:05;19.50;82.90
41116;DHT22;26861;51.824;4.682;2023-04-15T01:02:33;19.50;80.40
41116;DHT22;26861;51.824;4.682;2023-04-15T01:04:59;19.50;80.70
41116;DHT22;26861;51.824;4.682;2023-04-15T01:07:24;19.40;80.80
41116;DHT22;26861;51.824;4.682;2023-04-15T01:09:50;19.40;80.60
41116;DHT22;26861;51.824;4.682;2023-04-15T01:12:17;19.40;79.40
41116;DHT22;26861;51.824;4.682;2023-04-15T01:14:43;19.30;79.20
41116;DHT22;26861;51.824;4.682;2023-04-15T01:17:09;19.20;79.00
41116;DHT22;26861;51.824;4.682;2023-04-15T01:19:36;19.60;79.10
41116;DHT22;26861;51.824;4.682;2023-04-15T01:24:34;19.40;79.20
41116;DHT22;26861;51.824;4.682;2023-04-15T01:27:01;19.60;79.70
41116;DHT22;26861;51.824;4.682;2023-04-15T01:29:29;19.20;79.80
41116;DHT22;26861;51.824;4.682;2023-04-15T01:31:55;19.40;80.50
41116;DHT22;26861;51.824;4.682;2023-04-15T01:34:22;19.00;81.20
41116;DHT22;26861;51.824;4.682;2023-04-15T01:39:14;19.60;81.60
41116;DHT22;26861;51.824;4.682;2023-04-15T01:41:40;19.30;81.50
41116;DHT22;26861;51.824;4.682;2023-04-15T01:44:07;19.50;81.60
41116;DHT22;26861;51.824;4.682;2023-04-15T01:46:34;19.30;82.70
41116;DHT22;26861;51.824;4.682;2023-04-15T01:49:00;19.50;82.80
41116;DHT22;26861;51.824;4.682;2023-04-15T01:51:27;19.30;83.20
41116;DHT22;26861;51.824;4.682;2023-04-15T01:56:21;19.20;83.20
41116;DHT22;26861;51.824;4.682;2023-04-15T01:58:48;18.90;83.30
41116;DHT22;26861;51.824;4.682;2023-04-15T02:01:14;19.50;83.50
41116;DHT22;26861;51.824;4.682;2023-04-15T02:03:41;19.40;83.20
41116;DHT22;26861;51.824;4.682;2023-04-15T02:06:07;19.20;83.10
41116;DHT22;26861;51.824;4.682;2023-04-15T02:10:59;19.40;83.70
41116;DHT22;26861;51.824;4.682;2023-04-15T02:13:25;19.30;83.70
41116;DHT22;26861;51.824;4.682;2023-04-15T02:18:17;19.20;83.60
41116;DHT22;26861;51.824;4.682;2023-04-15T02:20:43;19.40;83.90
41116;DHT22;26861;51.824;4.682;2023-04-15T02:23:09;19.30;83.20
41116;DHT22;26861;51.824;4.682;2023-04-15T02:25:36;19.50;68.40
41116;DHT22;26861;51.824;4.682;2023-04-15T02:28:06;19.10;83.60
41116;DHT22;26861;51.824;4.682;2023-04-15T02:30:32;19.20;83.80
41116;DHT22;26861;51.824;4.682;2023-04-15T02:32:59;19.00;83.30
41116;DHT22;26861;51.824;4.682;2023-04-15T02:35:26;19.20;51.30
41116;DHT22;26861;51.824;4.682;2023-04-15T02:37:52;19.40;65.90
41116;DHT22;26861;51.824;4.682;2023-04-15T02:40:17;18.90;82.50
41116;DHT22;26861;51.824;4.682;2023-04-15T02:42:43;18.90;82.40
41116;DHT22;26861;51.824;4.682;2023-04-15T02:45:09;19.40;82.60
41116;DHT22;26861;51.824;4.682;2023-04-15T02:47:36;19.10;82.60
41116;DHT22;26861;51.824;4.682;2023-04-15T02:50:05;19.40;82.90
41116;DHT22;26861;51.824;4.682;2023-04-15T02:52:31;19.30;82.60
41116;DHT22;26861;51.824;4.682;2023-04-15T02:54:57;19.30;81.70
41116;DHT22;26861;51.824;4.682;2023-04-15T02:57:26;19.00;81.30
41116;DHT22;26861;51.824;4.682;2023-04-15T02:59:53;19.30;81.30
41116;DHT22;26861;51.824;4.682;2023-04-15T03:07:10;19.30;81.40
41116;DHT22;26861;51.824;4.682;2023-04-15T03:09:36;19.30;81.30
41116;DHT22;26861;51.824;4.682;2023-04-15T03:12:04;19.20;81.10
41116;DHT22;26861;51.824;4.682;2023-04-15T03:14:29;19.00;81.30
41116;DHT22;26861;51.824;4.682;2023-04-15T03:16:55;19.20;81.30
41116;DHT22;26861;51.824;4.682;2023-04-15T03:19:20;19.10;81.40
41116;DHT22;26861;51.824;4.682;2023-04-15T03:21:46;19.10;81.80
41116;DHT22;26861;51.824;4.682;2023-04-15T03:24:12;18.90;81.50
41116;DHT22;26861;51.824;4.682;2023-04-15T03:26:37;18.70;81.70
41116;DHT22;26861;51.824;4.682;2023-04-15T03:31:29;19.20;82.00
41116;DHT22;26861;51.824;4.682;2023-04-15T03:33:54;19.20;81.90
41116;DHT22;26861;51.824;4.682;2023-04-15T03:36:20;18.90;81.80
41116;DHT22;26861;51.824;4.682;2023-04-15T03:38:46;19.00;82.10
41116;DHT22;26861;51.824;4.682;2023-04-15T03:41:11;19.10;82.10
41116;DHT22;26861;51.824;4.682;2023-04-15T03:43:37;18.80;82.00
41116;DHT22;26861;51.824;4.682;2023-04-15T03:46:03;18.90;81.80
41116;DHT22;26861;51.824;4.682;2023-04-15T03:48:28;19.10;82.10
41116;DHT22;26861;51.824;4.682;2023-04-15T03:50:54;18.90;81.70
41116;DHT22;26861;51.824;4.682;2023-04-15T03:53:20;19.30;53.30
41116;DHT22;26861;51.824;4.682;2023-04-15T03:55:46;19.10;81.80
41116;DHT22;26861;51.824;4.682;2023-04-15T03:58:12;19.10;81.80
41116;DHT22;26861;51.824;4.682;2023-04-15T04:00:39;19.00;81.90
41116;DHT22;26861;51.824;4.682;2023-04-15T04:03:06;18.90;81.80
41116;DHT22;26861;51.824;4.682;2023-04-15T04:05:32;19.00;81.90
41116;DHT22;26861;51.824;4.682;2023-04-15T04:08:01;19.00;81.60
41116;DHT22;26861;51.824;4.682;2023-04-15T04:10:27;18.90;81.80
41116;DHT22;26861;51.824;4.682;2023-04-15T04:12:53;19.10;82.10
41116;DHT22;26861;51.824;4.682;2023-04-15T04:15:19;19.10;82.20
41116;DHT22;26861;51.824;4.682;2023-04-15T04:17:45;18.80;82.20
41116;DHT22;26861;51.824;4.682;2023-04-15T04:20:11;19.00;82.30
41116;DHT22;26861;51.824;4.682;2023-04-15T04:22:38;18.80;82.10
41116;DHT22;26861;51.824;4.682;2023-04-15T04:25:04;19.00;81.90
41116;DHT22;26861;51.824;4.682;2023-04-15T04:29:56;18.80;82.20
41116;DHT22;26861;51.824;4.682;2023-04-15T04:32:22;18.90;82.10
41116;DHT22;26861;51.824;4.682;2023-04-15T04:34:47;19.00;82.30
41116;DHT22;26861;51.824;4.682;2023-04-15T04:39:40;19.10;82.30
41116;DHT22;26861;51.824;4.682;2023-04-15T04:42:05;18.70;82.20
41116;DHT22;26861;51.824;4.682;2023-04-15T04:44:31;18.80;82.50
41116;DHT22;26861;51.824;4.682;2023-04-15T04:46:58;19.00;82.90
41116;DHT22;26861;51.824;4.682;2023-04-15T04:49:24;18.90;82.60
41116;DHT22;26861;51.824;4.682;2023-04-15T04:51:51;19.00;82.90
41116;DHT22;26861;51.824;4.682;2023-04-15T04:54:17;19.10;82.90
41116;DHT22;26861;51.824;4.682;2023-04-15T04:56:42;18.90;82.90
41116;DHT22;26861;51.824;4.682;2023-04-15T04:59:08;18.90;82.60
41116;DHT22;26861;51.824;4.682;2023-04-15T05:01:33;18.80;83.20
41116;DHT22;26861;51.824;4.682;2023-04-15T05:08:52;18.80;82.60
41116;DHT22;26861;51.824;4.682;2023-04-15T05:11:17;18.60;82.90
41116;DHT22;26861;51.824;4.682;2023-04-15T05:13:43;19.00;82.90
41116;DHT22;26861;51.824;4.682;2023-04-15T05:16:09;18.90;83.00
41116;DHT22;26861;51.824;4.682;2023-04-15T05:18:35;18.80;83.00
41116;DHT22;26861;51.824;4.682;2023-04-15T05:21:02;18.90;83.00
41116;DHT22;26861;51.824;4.682;2023-04-15T05:23:29;18.90;83.00
41116;DHT22;26861;51.824;4.682;2023-04-15T05:25:55;19.00;83.30
41116;DHT22;26861;51.824;4.682;2023-04-15T05:28:21;18.70;82.90
41116;DHT22;26861;51.824;4.682;2023-04-15T05:30:47;18.60;80.50
41116;DHT22;26861;51.824;4.682;2023-04-15T05:33:12;19.00;82.30
41116;DHT22;26861;51.824;4.682;2023-04-15T05:35:38;18.90;82.80
41116;DHT22;26861;51.824;4.682;2023-04-15T05:38:04;18.90;82.60
41116;DHT22;26861;51.824;4.682;2023-04-15T05:40:31;18.90;82.60
41116;DHT22;26861;51.824;4.682;2023-04-15T05:42:56;18.90;82.60
41116;DHT22;26861;51.824;4.682;2023-04-15T05:45:22;18.40;81.90
41116;DHT22;26861;51.824;4.682;2023-04-15T05:47:48;18.70;82.30
41116;DHT22;26861;51.824;4.682;2023-04-15T05:50:19;18.70;82.40
41116;DHT22;26861;51.824;4.682;2023-04-15T05:52:46;18.90;82.70
41116;DHT22;26861;51.824;4.682;2023-04-15T05:55:12;18.70;82.90
41116;DHT22;26861;51.824;4.682;2023-04-15T05:57:39;18.90;70.10
41116;DHT22;26861;51.824;4.682;2023-04-15T06:00:06;18.40;67.40
41116;DHT22;26861;51.824;4.682;2023-04-15T06:02:32;18.60;83.00
41116;DHT22;26861;51.824;4.682;2023-04-15T06:04:58;18.90;83.30
41116;DHT22;26861;51.824;4.682;2023-04-15T06:07:25;18.80;83.20
41116;DHT22;26861;51.824;4.682;2023-04-15T06:09:51;18.70;82.60
41116;DHT22;26861;51.824;4.682;2023-04-15T06:12:18;18.80;82.90
41116;DHT22;26861;51.824;4.682;2023-04-15T06:17:10;18.70;83.10
41116;DHT22;26861;51.824;4.682;2023-04-15T06:22:02;18.70;82.60
41116;DHT22;26861;51.824;4.682;2023-04-15T06:24:29;18.70;82.60
41116;DHT22;26861;51.824;4.682;2023-04-15T06:26:58;18.70;48.20
41116;DHT22;26861;51.824;4.682;2023-04-15T06:31:50;18.40;82.10
41116;DHT22;26861;51.824;4.682;2023-04-15T06:34:16;18.80;82.00
41116;DHT22;26861;51.824;4.682;2023-04-15T06:39:08;18.80;57.40
41116;DHT22;26861;51.824;4.682;2023-04-15T06:41:33;18.70;82.50
41116;DHT22;26861;51.824;4.682;2023-04-15T06:43:59;18.30;82.40
41116;DHT22;26861;51.824;4.682;2023-04-15T06:46:25;18.90;83.00
41116;DHT22;26861;51.824;4.682;2023-04-15T06:51:17;18.50;82.80
41116;DHT22;26861;51.824;4.682;2023-04-15T06:53:43;18.70;83.00
41116;DHT22;26861;51.824;4.682;2023-04-15T06:56:09;18.90;83.20
41116;DHT22;26861;51.824;4.682;2023-04-15T06:58:35;18.90;83.20
41116;DHT22;26861;51.824;4.682;2023-04-15T07:01:01;18.90;83.30
41116;DHT22;26861;51.824;4.682;2023-04-15T07:08:19;18.80;82.90
41116;DHT22;26861;51.824;4.682;2023-04-15T07:10:45;19.10;83.20
41116;DHT22;26861;51.824;4.682;2023-04-15T07:13:11;19.10;82.80
41116;DHT22;26861;51.824;4.682;2023-04-15T07:15:37;19.10;82.50
41116;DHT22;26861;51.824;4.682;2023-04-15T07:18:03;19.20;82.70
41116;DHT22;26861;51.824;4.682;2023-04-15T07:20:28;19.10;82.80
41116;DHT22;26861;51.824;4.682;2023-04-15T07:22:54;18.70;82.70
41116;DHT22;26861;51.824;4.682;2023-04-15T07:25:20;19.10;82.90
41116;DHT22;26861;51.824;4.682;2023-04-15T07:27:47;19.20;83.00
41116;DHT22;26861;51.824;4.682;2023-04-15T07:30:12;19.00;83.00
41116;DHT22;26861;51.824;4.682;2023-04-15T07:32:38;19.00;83.30
41116;DHT22;26861;51.824;4.682;2023-04-15T07:35:04;19.30;83.30
41116;DHT22;26861;51.824;4.682;2023-04-15T07:39:57;19.00;83.50
41116;DHT22;26861;51.824;4.682;2023-04-15T07:42:23;19.30;83.70
41116;DHT22;26861;51.824;4.682;2023-04-15T07:44:49;19.20;84.10
41116;DHT22;26861;51.824;4.682;2023-04-15T07:47:14;18.80;84.20
41116;DHT22;26861;51.824;4.682;2023-04-15T07:49:40;18.80;84.40
41116;DHT22;26861;51.824;4.682;2023-04-15T07:52:07;18.80;84.50
41116;DHT22;26861;51.824;4.682;2023-04-15T07:54:33;19.00;84.60
41116;DHT22;26861;51.824;4.682;2023-04-15T07:56:58;18.70;84.30
41116;DHT22;26861;51.824;4.682;2023-04-15T07:59:24;19.10;84.50
41116;DHT22;26861;51.824;4.682;2023-04-15T08:01:49;19.20;84.90
41116;DHT22;26861;51.824;4.682;2023-04-15T08:04:15;19.00;84.90
41116;DHT22;26861;51.824;4.682;2023-04-15T08:06:41;19.40;85.70
41116;DHT22;26861;51.824;4.682;2023-04-15T08:09:07;19.20;85.60
41116;DHT22;26861;51.824;4.682;2023-04-15T08:11:33;19.00;85.10
41116;DHT22;26861;51.824;4.682;2023-04-15T08:18:55;19.40;85.80
41116;DHT22;26861;51.824;4.682;2023-04-15T08:21:21;19.10;85.90
41116;DHT22;26861;51.824;4.682;2023-04-15T08:23:50;19.20;85.70
41116;DHT22;26861;51.824;4.682;2023-04-15T08:26:17;19.10;85.60
41116;DHT22;26861;51.824;4.682;2023-04-15T08:28:44;18.90;85.50
41116;DHT22;26861;51.824;4.682;2023-04-15T08:31:11;19.20;85.40
41116;DHT22;26861;51.824;4.682;2023-04-15T08:33:38;19.20;85.30
41116;DHT22;26861;51.824;4.682;2023-04-15T08:36:04;18.90;85.40
41116;DHT22;26861;51.824;4.682;2023-04-15T08:38:31;19.40;85.30
41116;DHT22;26861;51.824;4.682;2023-04-15T08:40:58;19.50;85.40
41116;DHT22;26861;51.824;4.682;2023-04-15T08:43:32;19.20;85.00
41116;DHT22;26861;51.824;4.682;2023-04-15T08:45:59;19.50;85.10
41116;DHT22;26861;51.824;4.682;2023-04-15T08:48:32;19.30;85.00
41116;DHT22;26861;51.824;4.682;2023-04-15T08:50:59;19.50;54.60
41116;DHT22;26861;51.824;4.682;2023-04-15T08:53:27;19.50;84.60
41116;DHT22;26861;51.824;4.682;2023-04-15T08:55:54;19.60;83.90
41116;DHT22;26861;51.824;4.682;2023-04-15T08:58:21;19.50;83.10
41116;DHT22;26861;51.824;4.682;2023-04-15T09:00:47;19.40;82.60
41116;DHT22;26861;51.824;4.682;2023-04-15T09:03:13;19.40;82.80
41116;DHT22;26861;51.824;4.682;2023-04-15T09:05:39;19.70;82.60
41116;DHT22;26861;51.824;4.682;2023-04-15T09:08:05;19.50;82.40
41116;DHT22;26861;51.824;4.682;2023-04-15T09:10:32;20.10;52.40
41116;DHT22;26861;51.824;4.682;2023-04-15T09:13:00;19.70;82.20
41116;DHT22;26861;51.824;4.682;2023-04-15T09:15:27;19.80;64.20
41116;DHT22;26861;51.824;4.682;2023-04-15T09:17:55;19.60;82.10
41116;DHT22;26861;51.824;4.682;2023-04-15T09:20:22;20.30;52.40
41116;DHT22;26861;51.824;4.682;2023-04-15T09:22:49;19.50;81.70
41116;DHT22;26861;51.824;4.682;2023-04-15T09:25:25;19.80;82.20
41116;DHT22;26861;51.824;4.682;2023-04-15T09:27:58;19.90;82.20
41116;DHT22;26861;51.824;4.682;2023-04-15T09:30:24;20.20;82.10
41116;DHT22;26861;51.824;4.682;2023-04-15T09:32:52;20.00;68.40
41116;DHT22;26861;51.824;4.682;2023-04-15T09:35:22;20.10;51.50
41116;DHT22;26861;51.824;4.682;2023-04-15T09:37:49;20.00;52.40
41116;DHT22;26861;51.824;4.682;2023-04-15T09:40:50;20.00;81.20
41116;DHT22;26861;51.824;4.682;2023-04-15T09:43:16;20.20;81.30
41116;DHT22;26861;51.824;4.682;2023-04-15T09:45:50;20.40;81.10
41116;DHT22;26861;51.824;4.682;2023-04-15T09:48:24;20.00;56.00
41116;DHT22;26861;51.824;4.682;2023-04-15T09:50:51;20.40;81.30
41116;DHT22;26861;51.824;4.682;2023-04-15T09:53:23;20.60;81.10
41116;DHT22;26861;51.824;4.682;2023-04-15T09:55:51;20.40;50.50
41116;DHT22;26861;51.824;4.682;2023-04-15T09:58:26;20.40;80.30
41116;DHT22;26861;51.824;4.682;2023-04-15T10:00:54;20.60;80.60
41116;DHT22;26861;51.824;4.682;2023-04-15T10:03:32;20.70;80.20
41116;DHT22;26861;51.824;4.682;2023-04-15T10:05:59;20.70;49.50
41116;DHT22;26861;51.824;4.682;2023-04-15T10:08:30;20.70;47.30
41116;DHT22;26861;51.824;4.682;2023-04-15T10:10:57;20.60;80.60
41116;DHT22;26861;51.824;4.682;2023-04-15T10:13:25;20.80;50.70
41116;DHT22;26861;51.824;4.682;2023-04-15T10:15:57;21.10;80.80
41116;DHT22;26861;51.824;4.682;2023-04-15T10:18:25;20.60;80.60
41116;DHT22;26861;51.824;4.682;2023-04-15T10:23:19;21.20;66.80
41116;DHT22;26861;51.824;4.682;2023-04-15T10:25:46;21.50;52.80
41116;DHT22;26861;51.824;4.682;2023-04-15T10:28:14;20.90;80.20
41116;DHT22;26861;51.824;4.682;2023-04-15T10:30:42;21.20;49.50
41116;DHT22;26861;51.824;4.682;2023-04-15T10:33:08;20.80;79.10
41116;DHT22;26861;51.824;4.682;2023-04-15T10:35:35;21.00;79.60
41116;DHT22;26861;51.824;4.682;2023-04-15T10:38:01;21.60;79.30
41116;DHT22;26861;51.824;4.682;2023-04-15T10:40:31;21.60;77.70
41116;DHT22;26861;51.824;4.682;2023-04-15T10:43:01;21.10;77.80
41116;DHT22;26861;51.824;4.682;2023-04-15T10:45:31;21.70;77.90
41116;DHT22;26861;51.824;4.682;2023-04-15T10:48:00;21.20;78.50
41116;DHT22;26861;51.824;4.682;2023-04-15T10:50:30;21.40;78.30
41116;DHT22;26861;51.824;4.682;2023-04-15T10:52:56;21.50;48.00
41116;DHT22;26861;51.824;4.682;2023-04-15T10:55:24;21.30;66.50
41116;DHT22;26861;51.824;4.682;2023-04-15T10:57:54;21.50;45.20
41116;DHT22;26861;51.824;4.682;2023-04-15T11:00:29;21.90;78.70
41116;DHT22;26861;51.824;4.682;2023-04-15T11:02:56;21.90;78.00
41116;DHT22;26861;51.824;4.682;2023-04-15T11:08:04;22.10;78.00
41116;DHT22;26861;51.824;4.682;2023-04-15T11:13:00;22.00;75.40
41116;DHT22;26861;51.824;4.682;2023-04-15T11:15:40;22.00;74.80
41116;DHT22;26861;51.824;4.682;2023-04-15T11:18:10;22.10;46.30
41116;DHT22;26861;51.824;4.682;2023-04-15T11:20:37;22.30;74.40
41116;DHT22;26861;51.824;4.682;2023-04-15T11:23:04;22.20;74.60
41116;DHT22;26861;51.824;4.682;2023-04-15T11:25:32;22.70;74.60
41116;DHT22;26861;51.824;4.682;2023-04-15T11:28:00;22.10;73.50
41116;DHT22;26861;51.824;4.682;2023-04-15T11:30:28;22.30;73.50
41116;DHT22;26861;51.824;4.682;2023-04-15T11:32:57;22.60;73.70
41116;DHT22;26861;51.824;4.682;2023-04-15T11:35:23;22.30;72.50
41116;DHT22;26861;51.824;4.682;2023-04-15T11:37:50;22.60;72.30
41116;DHT22;26861;51.824;4.682;2023-04-15T11:40:16;22.50;72.50
41116;DHT22;26861;51.824;4.682;2023-04-15T11:43:12;22.40;72.80
41116;DHT22;26861;51.824;4.682;2023-04-15T11:45:52;22.60;73.10
41116;DHT22;26861;51.824;4.682;2023-04-15T11:48:21;22.30;72.80
41116;DHT22;26861;51.824;4.682;2023-04-15T11:50:53;22.50;73.70
41116;DHT22;26861;51.824;4.682;2023-04-15T11:53:19;22.10;73.60
41116;DHT22;26861;51.824;4.682;2023-04-15T11:55:49;21.80;73.70
41116;DHT22;26861;51.824;4.682;2023-04-15T12:00:45;22.10;73.40
41116;DHT22;26861;51.824;4.682;2023-04-15T12:03:13;22.20;73.30
41116;DHT22;26861;51.824;4.682;2023-04-15T12:06:16;22.70;73.40
41116;DHT22;26861;51.824;4.682;2023-04-15T12:11:18;23.10;72.80
41116;DHT22;26861;51.824;4.682;2023-04-15T12:13:48;22.60;72.40
41116;DHT22;26861;51.824;4.682;2023-04-15T12:16:18;23.00;72.20
41116;DHT22;26861;51.824;4.682;2023-04-15T12:18:54;23.20;71.70
41116;DHT22;26861;51.824;4.682;2023-04-15T12:21:21;23.10;71.80
41116;DHT22;26861;51.824;4.682;2023-04-15T12:23:52;22.90;71.60
41116;DHT22;26861;51.824;4.682;2023-04-15T12:26:26;23.50;71.80
41116;DHT22;26861;51.824;4.682;2023-04-15T12:28:54;23.00;71.60
41116;DHT22;26861;51.824;4.682;2023-04-15T12:31:21;23.60;71.70
41116;DHT22;26861;51.824;4.682;2023-04-15T12:33:48;23.50;71.40
41116;DHT22;26861;51.824;4.682;2023-04-15T12:36:14;23.80;71.70
41116;DHT22;26861;51.824;4.682;2023-04-15T12:38:41;23.60;72.90
41116;DHT22;26861;51.824;4.682;2023-04-15T12:41:07;23.50;43.10
41116;DHT22;26861;51.824;4.682;2023-04-15T12:43:33;23.40;72.90
41116;DHT22;26861;51.824;4.682;2023-04-15T12:45:59;23.70;73.20
41116;DHT22;26861;51.824;4.682;2023-04-15T12:50:51;23.10;73.50
41116;DHT22;26861;51.824;4.682;2023-04-15T12:55:44;23.30;42.30
41116;DHT22;26861;51.824;4.682;2023-04-15T12:58:10;23.40;72.30
41116;DHT22;26861;51.824;4.682;2023-04-15T13:00:36;23.60;74.00
41116;DHT22;26861;51.824;4.682;2023-04-15T13:03:02;23.20;73.90
41116;DHT22;26861;51.824;4.682;2023-04-15T13:05:28;23.40;74.30
41116;DHT22;26861;51.824;4.682;2023-04-15T13:07:54;23.90;75.00
41116;DHT22;26861;51.824;4.682;2023-04-15T13:10:21;23.40;74.40
41116;DHT22;26861;51.824;4.682;2023-04-15T13:12:50;23.50;74.30
41116;DHT22;26861;51.824;4.682;2023-04-15T13:15:19;23.40;73.70
41116;DHT22;26861;51.824;4.682;2023-04-15T13:17:47;23.90;73.50
41116;DHT22;26861;51.824;4.682;2023-04-15T13:20:14;23.60;72.40
41116;DHT22;26861;51.824;4.682;2023-04-15T13:22:40;23.70;72.10
41116;DHT22;26861;51.824;4.682;2023-04-15T13:25:06;23.60;72.50
41116;DHT22;26861;51.824;4.682;2023-04-15T13:27:33;23.90;72.20
41116;DHT22;26861;51.824;4.682;2023-04-15T13:29:58;23.30;71.60
41116;DHT22;26861;51.824;4.682;2023-04-15T13:32:24;24.00;71.60
41116;DHT22;26861;51.824;4.682;2023-04-15T13:34:50;24.20;71.80
41116;DHT22;26861;51.824;4.682;2023-04-15T13:37:16;23.70;71.50
41116;DHT22;26861;51.824;4.682;2023-04-15T13:39:41;23.70;71.20
41116;DHT22;26861;51.824;4.682;2023-04-15T13:42:07;23.80;70.40
41116;DHT22;26861;51.824;4.682;2023-04-15T13:46:59;23.90;70.80
41116;DHT22;26861;51.824;4.682;2023-04-15T13:49:24;23.50;62.80
41116;DHT22;26861;51.824;4.682;2023-04-15T13:51:51;23.70;71.40
41116;DHT22;26861;51.824;4.682;2023-04-15T13:54:16;23.90;71.10
41116;DHT22;26861;51.824;4.682;2023-04-15T13:56:42;23.20;70.30
41116;DHT22;26861;51.824;4.682;2023-04-15T13:59:08;23.50;70.70
41116;DHT22;26861;51.824;4.682;2023-04-15T14:01:34;23.80;70.70
41116;DHT22;26861;51.824;4.682;2023-04-15T14:04:00;24.20;70.30
41116;DHT22;26861;51.824;4.682;2023-04-15T14:06:27;23.80;70.50
41116;DHT22;26861;51.824;4.682;2023-04-15T14:08:54;24.20;40.80
41116;DHT22;26861;51.824;4.682;2023-04-15T14:11:20;24.20;69.90
41116;DHT22;26861;51.824;4.682;2023-04-15T14:13:46;24.50;69.90
41116;DHT22;26861;51.824;4.682;2023-04-15T14:16:12;24.70;70.20
41116;DHT22;26861;51.824;4.682;2023-04-15T14:18:39;23.80;70.30
41116;DHT22;26861;51.824;4.682;2023-04-15T14:21:05;24.40;71.40
41116;DHT22;26861;51.824;4.682;2023-04-15T14:23:31;23.70;71.70
41116;DHT22;26861;51.824;4.682;2023-04-15T14:25:57;24.20;72.20
41116;DHT22;26861;51.824;4.682;2023-04-15T14:28:24;23.80;51.00
41116;DHT22;26861;51.824;4.682;2023-04-15T14:33:16;23.50;72.00
41116;DHT22;26861;51.824;4.682;2023-04-15T14:35:42;23.20;72.10
41116;DHT22;26861;51.824;4.682;2023-04-15T14:38:08;23.50;72.00
41116;DHT22;26861;51.824;4.682;2023-04-15T14:40:35;23.40;72.30
41116;DHT22;26861;51.824;4.682;2023-04-15T14:43:02;23.70;72.80
41116;DHT22;26861;51.824;4.682;2023-04-15T14:45:29;23.70;72.00
41116;DHT22;26861;51.824;4.682;2023-04-15T14:47:55;23.80;72.20
41116;DHT22;26861;51.824;4.682;2023-04-15T14:50:22;23.70;71.90
41116;DHT22;26861;51.824;4.682;2023-04-15T14:52:47;23.30;72.00
41116;DHT22;26861;51.824;4.682;2023-04-15T14:55:13;23.90;71.10
41116;DHT22;26861;51.824;4.682;2023-04-15T14:57:40;23.50;71.40
41116;DHT22;26861;51.824;4.682;2023-04-15T15:00:08;23.20;71.10
41116;DHT22;26861;51.824;4.682;2023-04-15T15:02:35;23.00;72.00
41116;DHT22;26861;51.824;4.682;2023-04-15T15:05:02;23.60;72.30
41116;DHT22;26861;51.824;4.682;2023-04-15T15:07:28;23.00;71.90
41116;DHT22;26861;51.824;4.682;2023-04-15T15:09:54;23.10;71.30
41116;DHT22;26861;51.824;4.682;2023-04-15T15:14:49;23.10;70.60
41116;DHT22;26861;51.824;4.682;2023-04-15T15:17:15;23.30;71.00
41116;DHT22;26861;51.824;4.682;2023-04-15T15:19:41;23.60;71.50
41116;DHT22;26861;51.824;4.682;2023-04-15T15:22:07;23.50;71.20
41116;DHT22;26861;51.824;4.682;2023-04-15T15:24:33;23.00;71.50
41116;DHT22;26861;51.824;4.682;2023-04-15T15:26:59;23.10;71.20
41116;DHT22;26861;51.824;4.682;2023-04-15T15:31:51;23.10;72.20
41116;DHT22;26861;51.824;4.682;2023-04-15T15:36:44;23.30;48.50
41116;DHT22;26861;51.824;4.682;2023-04-15T15:41:36;23.40;70.90
41116;DHT22;26861;51.824;4.682;2023-04-15T15:44:02;23.10;71.20
41116;DHT22;26861;51.824;4.682;2023-04-15T15:48:56;23.60;72.10
41116;DHT22;26861;51.824;4.682;2023-04-15T15:53:49;23.10;71.10
41116;DHT22;26861;51.824;4.682;2023-04-15T15:56:16;23.30;71.10
41116;DHT22;26861;51.824;4.682;2023-04-15T15:58:42;23.10;70.70
41116;DHT22;26861;51.824;4.682;2023-04-15T16:01:10;23.20;71.70
41116;DHT22;26861;51.824;4.682;2023-04-15T16:03:35;23.60;71.40
41116;DHT22;26861;51.824;4.682;2023-04-15T16:06:02;23.60;72.10
41116;DHT22;26861;51.824;4.682;2023-04-15T16:08:28;23.00;72.00
41116;DHT22;26861;51.824;4.682;2023-04-15T16:10:54;23.20;71.90
41116;DHT22;26861;51.824;4.682;2023-04-15T16:13:21;23.40;72.10
41116;DHT22;26861;51.824;4.682;2023-04-15T16:15:46;23.10;71.30
41116;DHT22;26861;51.824;4.682;2023-04-15T16:18:14;23.40;72.50
41116;DHT22;26861;51.824;4.682;2023-04-15T16:20:40;23.20;72.40
41116;DHT22;26861;51.824;4.682;2023-04-15T16:23:11;22.70;72.70
41116;DHT22;26861;51.824;4.682;2023-04-15T16:25:37;22.60;73.20
41116;DHT22;26861;51.824;4.682;2023-04-15T16:28:04;22.60;72.90
41116;DHT22;26861;51.824;4.682;2023-04-15T16:30:30;22.40;73.00
41116;DHT22;26861;51.824;4.682;2023-04-15T16:35:22;22.40;73.50
41116;DHT22;26861;51.824;4.682;2023-04-15T16:37:48;22.20;73.90
41116;DHT22;26861;51.824;4.682;2023-04-15T16:40:14;22.10;73.80
41116;DHT22;26861;51.824;4.682;2023-04-15T16:42:40;22.40;74.40
41116;DHT22;26861;51.824;4.682;2023-04-15T16:45:08;22.00;73.70
41116;DHT22;26861;51.824;4.682;2023-04-15T16:47:33;21.80;74.00
41116;DHT22;26861;51.824;4.682;2023-04-15T16:49:59;21.90;74.30
41116;DHT22;26861;51.824;4.682;2023-04-15T16:52:26;21.90;74.30
41116;DHT22;26861;51.824;4.682;2023-04-15T16:57:17;22.20;74.70
41116;DHT22;26861;51.824;4.682;2023-04-15T16:59:43;22.30;75.00
41116;DHT22;26861;51.824;4.682;2023-04-15T17:02:11;22.10;74.90
41116;DHT22;26861;51.824;4.682;2023-04-15T17:04:38;22.20;74.80
41116;DHT22;26861;51.824;4.682;2023-04-15T17:07:05;22.00;74.70
41116;DHT22;26861;51.824;4.682;2023-04-15T17:16:50;21.90;75.70
41116;DHT22;26861;51.824;4.682;2023-04-15T17:19:15;21.80;76.20
41116;DHT22;26861;51.824;4.682;2023-04-15T17:21:41;21.90;76.40
41116;DHT22;26861;51.824;4.682;2023-04-15T17:24:07;21.90;75.60